Terminal Aerodrome Forecast
Issued by NWS

Current Version | Previous Version | Text Only | Print | Product List | Glossary Off
Versions: 1 2 3 4 5 6 7 8 9 10 11 12 13 14 15 16 17 18 19 20 21

000
FTUS41 KPBZ 220233 AAB
TAFMGW
TAF AMD
KMGW 220233Z 2203/2224 36003KT P6SM VCSH SCT004 OVC007
      TEMPO 2203/2204 BKN004
     FM221400 34005KT P6SM BKN015
     FM221500 34005KT P6SM BKN025
     FM221700 34006KT P6SM -SHRA BKN035=

USA.gov is the U.S. government's official web portal to all federal, state and local government web resources and services.